Portada
METAR-TAF:

METAR-TAF

Aeroports :

Jamshedpur, Índia

latitud: 22-48-49N, longitud: 086-10-05E, altitud: 146 m

Observació

L'informe es va fer fa 27 minuts, a les 12:00 UTC
Vent calma
Temperatura 24°C
Humitat 65%
Pressió 1013 hPa
Visibilitat: 2000 m
calitja

METAR: VEJS 021200Z 00000KT 2000 HZ NSC 24/17 Q1013

Hora: 17:57 (12:27 UTC)

Pronòstic

L'informe es va fer fa 1 hora i 27 minuts, a les 11:00 UTC
Pronòstic vàlid del 02 a les 12 UTC al 02 a les 21 UTC
Vent kt del Nord
Visibilitat: 2500 m
calitja

TAF: VEJS 021100Z 0212/0221 00000KT 2500 HZ NSC

Observacions i pronòstics meteorològics de més de 4000 aeroports (METAR i TAF).

Les estacions disponibles són els punts grocs i vermells al mapa.

Posi el ratolí al punt desitjat per veure el nom de l'estació.

Feu clic per veure les observacions i els pronòstics meteorològics.

Per canviar el mapa: feu clic els botons verds amb una creu de color negre per apropar; al botó verd amb un guió per allunyar la imatge; o en les fletxes verdes per a mapes adjacents.


METAR-TAF: